sensor_id;sensor_type;location;lat;lon;timestamp;temperature;humidity
59128;DHT22;44912;52.754;5.994;2023-03-01T00:00:40;1.00;99.90
59128;DHT22;44912;52.754;5.994;2023-03-01T00:03:06;1.00;99.90
59128;DHT22;44912;52.754;5.994;2023-03-01T00:05:32;0.90;99.90
59128;DHT22;44912;52.754;5.994;2023-03-01T00:07:58;0.80;99.90
59128;DHT22;44912;52.754;5.994;2023-03-01T00:10:23;0.80;99.90
59128;DHT22;44912;52.754;5.994;2023-03-01T00:12:49;0.80;99.90
59128;DHT22;44912;52.754;5.994;2023-03-01T00:15:14;0.80;99.90
59128;DHT22;44912;52.754;5.994;2023-03-01T00:17:40;0.80;99.90
59128;DHT22;44912;52.754;5.994;2023-03-01T00:20:06;0.90;99.90
59128;DHT22;44912;52.754;5.994;2023-03-01T00:22:36;0.90;99.90
59128;DHT22;44912;52.754;5.994;2023-03-01T00:25:02;0.90;99.90
59128;DHT22;44912;52.754;5.994;2023-03-01T00:27:27;0.90;99.90
59128;DHT22;44912;52.754;5.994;2023-03-01T00:29:53;0.80;99.90
59128;DHT22;44912;52.754;5.994;2023-03-01T00:32:18;0.80;99.90
59128;DHT22;44912;52.754;5.994;2023-03-01T00:34:44;0.80;99.90
59128;DHT22;44912;52.754;5.994;2023-03-01T00:37:23;0.90;99.90
59128;DHT22;44912;52.754;5.994;2023-03-01T00:39:49;0.90;99.90
59128;DHT22;44912;52.754;5.994;2023-03-01T00:42:15;0.90;99.90
59128;DHT22;44912;52.754;5.994;2023-03-01T00:44:41;0.90;99.90
59128;DHT22;44912;52.754;5.994;2023-03-01T00:47:07;0.80;99.90
59128;DHT22;44912;52.754;5.994;2023-03-01T00:49:32;0.80;99.90
59128;DHT22;44912;52.754;5.994;2023-03-01T00:51:58;0.80;99.90
59128;DHT22;44912;52.754;5.994;2023-03-01T00:54:23;0.70;99.90
59128;DHT22;44912;52.754;5.994;2023-03-01T00:56:49;0.70;99.90
59128;DHT22;44912;52.754;5.994;2023-03-01T00:59:14;0.70;99.90
59128;DHT22;44912;52.754;5.994;2023-03-01T01:01:40;0.70;99.90
59128;DHT22;44912;52.754;5.994;2023-03-01T01:04:09;0.70;99.90
59128;DHT22;44912;52.754;5.994;2023-03-01T01:06:37;0.70;99.90
59128;DHT22;44912;52.754;5.994;2023-03-01T01:09:05;0.70;99.90
59128;DHT22;44912;52.754;5.994;2023-03-01T01:11:31;0.60;99.90
59128;DHT22;44912;52.754;5.994;2023-03-01T01:13:57;0.50;99.90
59128;DHT22;44912;52.754;5.994;2023-03-01T01:16:25;0.50;99.90
59128;DHT22;44912;52.754;5.994;2023-03-01T01:18:51;0.60;99.90
59128;DHT22;44912;52.754;5.994;2023-03-01T01:21:20;0.60;99.90
59128;DHT22;44912;52.754;5.994;2023-03-01T01:23:47;0.60;99.90
59128;DHT22;44912;52.754;5.994;2023-03-01T01:26:23;0.50;99.90
59128;DHT22;44912;52.754;5.994;2023-03-01T01:28:49;0.50;99.90
59128;DHT22;44912;52.754;5.994;2023-03-01T01:31:16;0.50;99.90
59128;DHT22;44912;52.754;5.994;2023-03-01T01:33:42;0.50;99.90
59128;DHT22;44912;52.754;5.994;2023-03-01T01:36:08;0.50;99.90
59128;DHT22;44912;52.754;5.994;2023-03-01T01:38:35;0.50;99.90
59128;DHT22;44912;52.754;5.994;2023-03-01T01:41:01;0.50;99.90
59128;DHT22;44912;52.754;5.994;2023-03-01T01:43:35;0.60;99.90
59128;DHT22;44912;52.754;5.994;2023-03-01T01:46:26;0.60;99.90
59128;DHT22;44912;52.754;5.994;2023-03-01T01:48:53;0.50;99.90
59128;DHT22;44912;52.754;5.994;2023-03-01T01:51:25;0.50;99.90
59128;DHT22;44912;52.754;5.994;2023-03-01T01:53:57;0.40;99.90
59128;DHT22;44912;52.754;5.994;2023-03-01T01:56:25;0.40;99.90
59128;DHT22;44912;52.754;5.994;2023-03-01T01:58:52;0.40;99.90
59128;DHT22;44912;52.754;5.994;2023-03-01T02:01:18;0.40;99.90
59128;DHT22;44912;52.754;5.994;2023-03-01T02:03:44;0.40;99.90
59128;DHT22;44912;52.754;5.994;2023-03-01T02:06:46;0.40;99.90
59128;DHT22;44912;52.754;5.994;2023-03-01T02:09:15;0.40;99.90
59128;DHT22;44912;52.754;5.994;2023-03-01T02:11:44;0.40;99.90
59128;DHT22;44912;52.754;5.994;2023-03-01T02:14:10;0.40;99.90
59128;DHT22;44912;52.754;5.994;2023-03-01T02:16:35;0.40;99.90
59128;DHT22;44912;52.754;5.994;2023-03-01T02:19:03;0.40;99.90
59128;DHT22;44912;52.754;5.994;2023-03-01T02:22:07;0.30;99.90
59128;DHT22;44912;52.754;5.994;2023-03-01T02:25:01;0.20;99.90
59128;DHT22;44912;52.754;5.994;2023-03-01T02:30:22;0.10;99.90
59128;DHT22;44912;52.754;5.994;2023-03-01T02:32:50;0.10;99.90
59128;DHT22;44912;52.754;5.994;2023-03-01T02:35:17;0.20;99.90
59128;DHT22;44912;52.754;5.994;2023-03-01T02:37:44;0.10;99.90
59128;DHT22;44912;52.754;5.994;2023-03-01T02:40:19;0.10;99.90
59128;DHT22;44912;52.754;5.994;2023-03-01T02:42:53;0.00;99.90
59128;DHT22;44912;52.754;5.994;2023-03-01T02:45:19;-0.10;99.90
59128;DHT22;44912;52.754;5.994;2023-03-01T02:47:45;-0.10;99.90
59128;DHT22;44912;52.754;5.994;2023-03-01T02:53:13;-0.10;99.90
59128;DHT22;44912;52.754;5.994;2023-03-01T02:55:42;-0.10;99.90
59128;DHT22;44912;52.754;5.994;2023-03-01T02:58:07;-0.20;99.90
59128;DHT22;44912;52.754;5.994;2023-03-01T03:00:39;-0.20;99.90
59128;DHT22;44912;52.754;5.994;2023-03-01T03:03:13;-0.20;99.90
59128;DHT22;44912;52.754;5.994;2023-03-01T03:05:40;-0.20;99.90
59128;DHT22;44912;52.754;5.994;2023-03-01T03:08:06;-0.20;99.90
59128;DHT22;44912;52.754;5.994;2023-03-01T03:10:36;-0.30;99.90
59128;DHT22;44912;52.754;5.994;2023-03-01T03:13:07;-0.20;99.90
59128;DHT22;44912;52.754;5.994;2023-03-01T03:15:33;-0.20;99.90
59128;DHT22;44912;52.754;5.994;2023-03-01T03:18:03;-0.20;99.90
59128;DHT22;44912;52.754;5.994;2023-03-01T03:20:29;-0.10;99.90
59128;DHT22;44912;52.754;5.994;2023-03-01T03:22:56;-0.10;99.90
59128;DHT22;44912;52.754;5.994;2023-03-01T03:25:24;0.00;99.90
59128;DHT22;44912;52.754;5.994;2023-03-01T03:27:51;0.10;99.90
59128;DHT22;44912;52.754;5.994;2023-03-01T03:30:23;0.10;99.90
59128;DHT22;44912;52.754;5.994;2023-03-01T03:32:49;0.10;99.90
59128;DHT22;44912;52.754;5.994;2023-03-01T03:37:50;0.10;99.90
59128;DHT22;44912;52.754;5.994;2023-03-01T03:40:38;0.10;99.90
59128;DHT22;44912;52.754;5.994;2023-03-01T03:43:06;0.00;99.90
59128;DHT22;44912;52.754;5.994;2023-03-01T03:45:31;0.00;99.90
59128;DHT22;44912;52.754;5.994;2023-03-01T03:47:59;0.00;99.90
59128;DHT22;44912;52.754;5.994;2023-03-01T03:50:25;0.00;99.90
59128;DHT22;44912;52.754;5.994;2023-03-01T03:52:51;0.00;99.90
59128;DHT22;44912;52.754;5.994;2023-03-01T03:55:17;-0.10;99.90
59128;DHT22;44912;52.754;5.994;2023-03-01T03:57:46;-0.10;99.90
59128;DHT22;44912;52.754;5.994;2023-03-01T04:00:18;-0.10;99.90
59128;DHT22;44912;52.754;5.994;2023-03-01T04:02:45;-0.20;99.90
59128;DHT22;44912;52.754;5.994;2023-03-01T04:05:13;-0.30;99.90
59128;DHT22;44912;52.754;5.994;2023-03-01T04:07:40;-0.30;99.90
59128;DHT22;44912;52.754;5.994;2023-03-01T04:10:11;-0.30;99.90
59128;DHT22;44912;52.754;5.994;2023-03-01T04:12:37;-0.30;99.90
59128;DHT22;44912;52.754;5.994;2023-03-01T04:15:05;-0.40;99.90
59128;DHT22;44912;52.754;5.994;2023-03-01T04:17:43;-0.40;99.90
59128;DHT22;44912;52.754;5.994;2023-03-01T04:20:10;-0.50;99.90
59128;DHT22;44912;52.754;5.994;2023-03-01T04:22:39;-0.50;99.90
59128;DHT22;44912;52.754;5.994;2023-03-01T04:25:06;-0.50;99.90
59128;DHT22;44912;52.754;5.994;2023-03-01T04:27:35;-0.50;99.90
59128;DHT22;44912;52.754;5.994;2023-03-01T04:30:03;-0.60;99.90
59128;DHT22;44912;52.754;5.994;2023-03-01T04:32:28;-0.60;99.90
59128;DHT22;44912;52.754;5.994;2023-03-01T04:34:54;-0.60;99.90
59128;DHT22;44912;52.754;5.994;2023-03-01T04:37:20;-0.70;99.90
59128;DHT22;44912;52.754;5.994;2023-03-01T04:39:45;-0.80;99.90
59128;DHT22;44912;52.754;5.994;2023-03-01T04:42:13;-0.80;99.90
59128;DHT22;44912;52.754;5.994;2023-03-01T04:44:39;-0.80;99.90
59128;DHT22;44912;52.754;5.994;2023-03-01T04:47:04;-0.80;99.90
59128;DHT22;44912;52.754;5.994;2023-03-01T04:49:30;-0.90;99.90
59128;DHT22;44912;52.754;5.994;2023-03-01T04:51:56;-0.90;99.90
59128;DHT22;44912;52.754;5.994;2023-03-01T04:54:28;-0.90;99.90
59128;DHT22;44912;52.754;5.994;2023-03-01T04:56:54;-0.90;99.90
59128;DHT22;44912;52.754;5.994;2023-03-01T04:59:20;-0.90;99.90
59128;DHT22;44912;52.754;5.994;2023-03-01T05:01:48;-1.00;99.90
59128;DHT22;44912;52.754;5.994;2023-03-01T05:04:14;-1.00;99.90
59128;DHT22;44912;52.754;5.994;2023-03-01T05:06:39;-1.00;99.90
59128;DHT22;44912;52.754;5.994;2023-03-01T05:09:05;-1.00;99.90
59128;DHT22;44912;52.754;5.994;2023-03-01T05:11:31;-1.10;99.90
59128;DHT22;44912;52.754;5.994;2023-03-01T05:14:01;-1.10;99.90
59128;DHT22;44912;52.754;5.994;2023-03-01T05:16:27;-1.20;99.90
59128;DHT22;44912;52.754;5.994;2023-03-01T05:18:53;-1.20;99.90
59128;DHT22;44912;52.754;5.994;2023-03-01T05:21:20;-1.20;99.90
59128;DHT22;44912;52.754;5.994;2023-03-01T05:23:46;-1.20;99.90
59128;DHT22;44912;52.754;5.994;2023-03-01T05:26:13;-1.30;99.90
59128;DHT22;44912;52.754;5.994;2023-03-01T05:28:39;-1.40;99.90
59128;DHT22;44912;52.754;5.994;2023-03-01T05:31:06;-1.40;99.90
59128;DHT22;44912;52.754;5.994;2023-03-01T05:33:38;-1.60;99.90
59128;DHT22;44912;52.754;5.994;2023-03-01T05:36:06;-1.70;99.90
59128;DHT22;44912;52.754;5.994;2023-03-01T05:38:32;-1.80;99.90
59128;DHT22;44912;52.754;5.994;2023-03-01T05:40:58;-1.90;99.90
59128;DHT22;44912;52.754;5.994;2023-03-01T05:43:24;-1.90;99.90
59128;DHT22;44912;52.754;5.994;2023-03-01T05:45:49;-2.00;99.90
59128;DHT22;44912;52.754;5.994;2023-03-01T05:48:15;-2.00;99.90
59128;DHT22;44912;52.754;5.994;2023-03-01T05:50:43;-2.10;99.90
59128;DHT22;44912;52.754;5.994;2023-03-01T05:53:12;-2.10;99.90
59128;DHT22;44912;52.754;5.994;2023-03-01T05:55:38;-2.20;99.90
59128;DHT22;44912;52.754;5.994;2023-03-01T05:58:07;-2.40;99.90
59128;DHT22;44912;52.754;5.994;2023-03-01T06:00:34;-2.50;99.90
59128;DHT22;44912;52.754;5.994;2023-03-01T06:03:00;-2.50;99.90
59128;DHT22;44912;52.754;5.994;2023-03-01T06:05:27;-2.50;99.90
59128;DHT22;44912;52.754;5.994;2023-03-01T06:07:53;-2.50;99.90
59128;DHT22;44912;52.754;5.994;2023-03-01T06:10:20;-2.50;99.90
59128;DHT22;44912;52.754;5.994;2023-03-01T06:12:46;-2.50;99.90
59128;DHT22;44912;52.754;5.994;2023-03-01T06:15:14;-2.40;99.90
59128;DHT22;44912;52.754;5.994;2023-03-01T06:17:42;-2.40;99.90
59128;DHT22;44912;52.754;5.994;2023-03-01T06:20:15;-2.30;99.90
59128;DHT22;44912;52.754;5.994;2023-03-01T06:22:42;-2.30;99.90
59128;DHT22;44912;52.754;5.994;2023-03-01T06:25:09;-2.30;99.90
59128;DHT22;44912;52.754;5.994;2023-03-01T06:27:35;-2.30;99.90
59128;DHT22;44912;52.754;5.994;2023-03-01T06:30:00;-2.30;99.90
59128;DHT22;44912;52.754;5.994;2023-03-01T06:32:26;-2.40;99.90
59128;DHT22;44912;52.754;5.994;2023-03-01T06:34:52;-2.30;99.90
59128;DHT22;44912;52.754;5.994;2023-03-01T06:37:17;-2.30;99.90
59128;DHT22;44912;52.754;5.994;2023-03-01T06:39:43;-2.30;99.90
59128;DHT22;44912;52.754;5.994;2023-03-01T06:42:09;-2.40;99.90
59128;DHT22;44912;52.754;5.994;2023-03-01T06:44:37;-2.40;99.90
59128;DHT22;44912;52.754;5.994;2023-03-01T06:47:03;-2.50;99.90
59128;DHT22;44912;52.754;5.994;2023-03-01T06:49:29;-2.50;99.90
59128;DHT22;44912;52.754;5.994;2023-03-01T06:51:55;-2.50;99.90
59128;DHT22;44912;52.754;5.994;2023-03-01T06:54:21;-2.50;99.90
59128;DHT22;44912;52.754;5.994;2023-03-01T06:56:49;-2.50;99.90
59128;DHT22;44912;52.754;5.994;2023-03-01T06:59:16;-2.40;99.90
59128;DHT22;44912;52.754;5.994;2023-03-01T07:01:42;-2.30;99.90
59128;DHT22;44912;52.754;5.994;2023-03-01T07:04:07;-2.30;99.90
59128;DHT22;44912;52.754;5.994;2023-03-01T07:06:33;-2.20;99.90
59128;DHT22;44912;52.754;5.994;2023-03-01T07:08:58;-2.30;99.90
59128;DHT22;44912;52.754;5.994;2023-03-01T07:11:24;-2.30;99.90
59128;DHT22;44912;52.754;5.994;2023-03-01T07:13:50;-2.20;99.90
59128;DHT22;44912;52.754;5.994;2023-03-01T07:16:15;-2.10;99.90
59128;DHT22;44912;52.754;5.994;2023-03-01T07:18:41;-2.00;99.90
59128;DHT22;44912;52.754;5.994;2023-03-01T07:21:07;-2.00;99.90
59128;DHT22;44912;52.754;5.994;2023-03-01T07:23:33;-1.90;99.90
59128;DHT22;44912;52.754;5.994;2023-03-01T07:25:59;-1.80;99.90
59128;DHT22;44912;52.754;5.994;2023-03-01T07:28:26;-1.70;99.90
59128;DHT22;44912;52.754;5.994;2023-03-01T07:30:52;-1.70;99.90
59128;DHT22;44912;52.754;5.994;2023-03-01T07:33:18;-1.60;99.90
59128;DHT22;44912;52.754;5.994;2023-03-01T07:35:44;-1.50;99.90
59128;DHT22;44912;52.754;5.994;2023-03-01T07:38:09;-1.50;99.90
59128;DHT22;44912;52.754;5.994;2023-03-01T07:40:35;-1.40;99.90
59128;DHT22;44912;52.754;5.994;2023-03-01T07:43:00;-1.30;99.90
59128;DHT22;44912;52.754;5.994;2023-03-01T07:45:27;-1.20;99.90
59128;DHT22;44912;52.754;5.994;2023-03-01T07:47:53;-1.20;99.90
59128;DHT22;44912;52.754;5.994;2023-03-01T07:50:20;-1.00;99.90
59128;DHT22;44912;52.754;5.994;2023-03-01T07:52:46;-0.90;99.90
59128;DHT22;44912;52.754;5.994;2023-03-01T07:55:12;-0.80;99.90
59128;DHT22;44912;52.754;5.994;2023-03-01T07:57:38;-0.70;99.90
59128;DHT22;44912;52.754;5.994;2023-03-01T08:00:05;-0.70;99.90
59128;DHT22;44912;52.754;5.994;2023-03-01T08:02:31;-0.60;99.90
59128;DHT22;44912;52.754;5.994;2023-03-01T08:04:56;-0.50;99.90
59128;DHT22;44912;52.754;5.994;2023-03-01T08:07:22;-0.40;99.90
59128;DHT22;44912;52.754;5.994;2023-03-01T08:09:47;-0.30;99.90
59128;DHT22;44912;52.754;5.994;2023-03-01T08:12:13;-0.10;99.90
59128;DHT22;44912;52.754;5.994;2023-03-01T08:14:38;0.00;99.90
59128;DHT22;44912;52.754;5.994;2023-03-01T08:17:04;0.10;99.90
59128;DHT22;44912;52.754;5.994;2023-03-01T08:19:30;0.20;99.90
59128;DHT22;44912;52.754;5.994;2023-03-01T08:21:55;0.30;99.90
59128;DHT22;44912;52.754;5.994;2023-03-01T08:24:23;0.40;99.90
59128;DHT22;44912;52.754;5.994;2023-03-01T08:26:49;0.60;99.90
59128;DHT22;44912;52.754;5.994;2023-03-01T08:29:14;0.80;99.90
59128;DHT22;44912;52.754;5.994;2023-03-01T08:31:40;1.00;99.90
59128;DHT22;44912;52.754;5.994;2023-03-01T08:34:11;1.10;99.90
59128;DHT22;44912;52.754;5.994;2023-03-01T08:36:40;1.30;99.90
59128;DHT22;44912;52.754;5.994;2023-03-01T08:39:07;1.50;99.90
59128;DHT22;44912;52.754;5.994;2023-03-01T08:41:33;1.70;99.90
59128;DHT22;44912;52.754;5.994;2023-03-01T08:43:59;1.90;99.90
59128;DHT22;44912;52.754;5.994;2023-03-01T08:46:29;2.10;99.90
59128;DHT22;44912;52.754;5.994;2023-03-01T08:48:55;2.20;99.90
59128;DHT22;44912;52.754;5.994;2023-03-01T08:51:21;2.40;99.90
59128;DHT22;44912;52.754;5.994;2023-03-01T08:53:47;2.60;99.90
59128;DHT22;44912;52.754;5.994;2023-03-01T08:56:14;2.60;99.90
59128;DHT22;44912;52.754;5.994;2023-03-01T08:58:40;2.80;99.90
59128;DHT22;44912;52.754;5.994;2023-03-01T09:01:09;2.90;99.90
59128;DHT22;44912;52.754;5.994;2023-03-01T09:03:35;3.00;99.90
59128;DHT22;44912;52.754;5.994;2023-03-01T09:06:02;3.20;99.90
59128;DHT22;44912;52.754;5.994;2023-03-01T09:08:28;3.40;99.90
59128;DHT22;44912;52.754;5.994;2023-03-01T09:10:54;3.60;99.90
59128;DHT22;44912;52.754;5.994;2023-03-01T09:13:20;3.80;99.90
59128;DHT22;44912;52.754;5.994;2023-03-01T09:15:45;3.90;99.90
59128;DHT22;44912;52.754;5.994;2023-03-01T09:18:11;4.10;99.90
59128;DHT22;44912;52.754;5.994;2023-03-01T09:20:36;4.20;99.90
59128;DHT22;44912;52.754;5.994;2023-03-01T09:23:02;4.30;99.90
59128;DHT22;44912;52.754;5.994;2023-03-01T09:25:27;4.40;99.90
59128;DHT22;44912;52.754;5.994;2023-03-01T09:27:54;4.50;99.90
59128;DHT22;44912;52.754;5.994;2023-03-01T09:30:20;4.70;99.90
59128;DHT22;44912;52.754;5.994;2023-03-01T09:32:46;4.90;99.90
59128;DHT22;44912;52.754;5.994;2023-03-01T09:35:12;5.10;99.90
59128;DHT22;44912;52.754;5.994;2023-03-01T09:37:38;5.20;99.90
59128;DHT22;44912;52.754;5.994;2023-03-01T09:40:05;5.30;99.90
59128;DHT22;44912;52.754;5.994;2023-03-01T09:42:34;5.50;99.90
59128;DHT22;44912;52.754;5.994;2023-03-01T09:45:27;5.70;99.90
59128;DHT22;44912;52.754;5.994;2023-03-01T09:47:55;5.90;99.90
59128;DHT22;44912;52.754;5.994;2023-03-01T09:50:22;6.00;99.90
59128;DHT22;44912;52.754;5.994;2023-03-01T09:55:48;6.40;99.90
59128;DHT22;44912;52.754;5.994;2023-03-01T10:00:54;6.60;99.90
59128;DHT22;44912;52.754;5.994;2023-03-01T10:03:28;6.80;99.90
59128;DHT22;44912;52.754;5.994;2023-03-01T10:06:04;6.90;99.90
59128;DHT22;44912;52.754;5.994;2023-03-01T10:11:05;7.30;99.90
59128;DHT22;44912;52.754;5.994;2023-03-01T10:14:05;7.50;99.90
59128;DHT22;44912;52.754;5.994;2023-03-01T10:19:04;7.70;99.90
59128;DHT22;44912;52.754;5.994;2023-03-01T10:21:31;7.70;99.90
59128;DHT22;44912;52.754;5.994;2023-03-01T10:24:12;7.80;99.90
59128;DHT22;44912;52.754;5.994;2023-03-01T10:26:44;7.80;99.90
59128;DHT22;44912;52.754;5.994;2023-03-01T10:29:12;7.90;99.90
59128;DHT22;44912;52.754;5.994;2023-03-01T10:31:46;8.00;99.90
59128;DHT22;44912;52.754;5.994;2023-03-01T10:34:35;8.10;99.90
59128;DHT22;44912;52.754;5.994;2023-03-01T10:37:12;8.10;99.90
59128;DHT22;44912;52.754;5.994;2023-03-01T10:40:12;8.20;99.90
59128;DHT22;44912;52.754;5.994;2023-03-01T10:42:40;8.30;99.90
59128;DHT22;44912;52.754;5.994;2023-03-01T10:48:17;8.30;99.90
59128;DHT22;44912;52.754;5.994;2023-03-01T10:50:46;8.40;99.90
59128;DHT22;44912;52.754;5.994;2023-03-01T10:53:32;8.50;99.90
59128;DHT22;44912;52.754;5.994;2023-03-01T10:56:07;8.60;99.90
59128;DHT22;44912;52.754;5.994;2023-03-01T10:58:34;8.70;99.90
59128;DHT22;44912;52.754;5.994;2023-03-01T11:01:05;8.70;99.90
59128;DHT22;44912;52.754;5.994;2023-03-01T11:03:38;8.80;99.90
59128;DHT22;44912;52.754;5.994;2023-03-01T11:11:22;9.10;99.90
59128;DHT22;44912;52.754;5.994;2023-03-01T11:13:56;9.10;99.90
59128;DHT22;44912;52.754;5.994;2023-03-01T11:16:29;9.10;99.90
59128;DHT22;44912;52.754;5.994;2023-03-01T11:21:39;9.20;99.90
59128;DHT22;44912;52.754;5.994;2023-03-01T11:24:10;9.40;99.90
59128;DHT22;44912;52.754;5.994;2023-03-01T11:26:39;9.40;99.90
59128;DHT22;44912;52.754;5.994;2023-03-01T11:29:16;9.40;99.90
59128;DHT22;44912;52.754;5.994;2023-03-01T11:31:43;9.30;99.90
59128;DHT22;44912;52.754;5.994;2023-03-01T11:34:19;9.30;99.90
59128;DHT22;44912;52.754;5.994;2023-03-01T11:36:54;9.30;99.90
59128;DHT22;44912;52.754;5.994;2023-03-01T11:39:31;9.30;99.90
59128;DHT22;44912;52.754;5.994;2023-03-01T11:42:19;9.40;99.90
59128;DHT22;44912;52.754;5.994;2023-03-01T11:44:48;9.40;99.90
59128;DHT22;44912;52.754;5.994;2023-03-01T11:50:05;9.40;99.90
59128;DHT22;44912;52.754;5.994;2023-03-01T11:55:46;9.40;99.90
59128;DHT22;44912;52.754;5.994;2023-03-01T11:58:39;9.30;99.90
59128;DHT22;44912;52.754;5.994;2023-03-01T12:01:19;9.40;99.90
59128;DHT22;44912;52.754;5.994;2023-03-01T12:06:47;9.30;99.90
59128;DHT22;44912;52.754;5.994;2023-03-01T12:09:51;9.30;99.90
59128;DHT22;44912;52.754;5.994;2023-03-01T12:23:02;9.40;99.90
59128;DHT22;44912;52.754;5.994;2023-03-01T12:26:06;9.50;99.90
59128;DHT22;44912;52.754;5.994;2023-03-01T12:34:22;9.60;99.90
59128;DHT22;44912;52.754;5.994;2023-03-01T12:44:55;9.80;99.90
59128;DHT22;44912;52.754;5.994;2023-03-01T12:50:06;9.90;99.90
59128;DHT22;44912;52.754;5.994;2023-03-01T12:52:45;9.90;99.90
59128;DHT22;44912;52.754;5.994;2023-03-01T12:55:32;9.90;99.90
59128;DHT22;44912;52.754;5.994;2023-03-01T13:03:17;9.70;99.90
59128;DHT22;44912;52.754;5.994;2023-03-01T13:11:21;9.60;99.90
59128;DHT22;44912;52.754;5.994;2023-03-01T13:13:47;9.60;99.90
59128;DHT22;44912;52.754;5.994;2023-03-01T13:19:14;9.50;99.90
59128;DHT22;44912;52.754;5.994;2023-03-01T13:21:41;9.40;99.90
59128;DHT22;44912;52.754;5.994;2023-03-01T13:24:40;9.40;99.90
59128;DHT22;44912;52.754;5.994;2023-03-01T13:29:54;9.30;99.90
59128;DHT22;44912;52.754;5.994;2023-03-01T13:32:28;9.30;99.90
59128;DHT22;44912;52.754;5.994;2023-03-01T13:35:02;9.30;99.90
59128;DHT22;44912;52.754;5.994;2023-03-01T13:37:37;9.30;99.90
59128;DHT22;44912;52.754;5.994;2023-03-01T13:42:48;9.20;99.90
59128;DHT22;44912;52.754;5.994;2023-03-01T13:48:25;9.10;99.90
59128;DHT22;44912;52.754;5.994;2023-03-01T13:50:55;9.10;99.90
59128;DHT22;44912;52.754;5.994;2023-03-01T13:53:25;9.10;99.90
59128;DHT22;44912;52.754;5.994;2023-03-01T13:55:55;9.00;99.90
59128;DHT22;44912;52.754;5.994;2023-03-01T13:58:25;9.00;99.90
59128;DHT22;44912;52.754;5.994;2023-03-01T14:01:03;8.90;99.90
59128;DHT22;44912;52.754;5.994;2023-03-01T14:03:31;8.90;99.90
59128;DHT22;44912;52.754;5.994;2023-03-01T14:08:32;8.90;99.90
59128;DHT22;44912;52.754;5.994;2023-03-01T14:11:20;8.90;99.90
59128;DHT22;44912;52.754;5.994;2023-03-01T14:21:36;8.80;99.90
59128;DHT22;44912;52.754;5.994;2023-03-01T14:24:02;8.80;99.90
59128;DHT22;44912;52.754;5.994;2023-03-01T14:26:30;8.80;99.90
59128;DHT22;44912;52.754;5.994;2023-03-01T14:28:57;8.90;99.90
59128;DHT22;44912;52.754;5.994;2023-03-01T14:34:00;8.90;99.90
59128;DHT22;44912;52.754;5.994;2023-03-01T14:36:28;8.90;99.90
59128;DHT22;44912;52.754;5.994;2023-03-01T14:38:54;8.90;99.90
59128;DHT22;44912;52.754;5.994;2023-03-01T14:41:23;9.00;99.90
59128;DHT22;44912;52.754;5.994;2023-03-01T14:43:55;9.00;99.90
59128;DHT22;44912;52.754;5.994;2023-03-01T14:46:36;9.10;99.90
59128;DHT22;44912;52.754;5.994;2023-03-01T14:51:41;9.20;99.90
59128;DHT22;44912;52.754;5.994;2023-03-01T14:54:43;9.20;99.90
59128;DHT22;44912;52.754;5.994;2023-03-01T14:57:15;9.20;99.90
59128;DHT22;44912;52.754;5.994;2023-03-01T14:59:42;9.10;99.90
59128;DHT22;44912;52.754;5.994;2023-03-01T15:02:14;9.10;99.90
59128;DHT22;44912;52.754;5.994;2023-03-01T15:04:50;9.10;99.90
59128;DHT22;44912;52.754;5.994;2023-03-01T15:07:17;9.10;99.90
59128;DHT22;44912;52.754;5.994;2023-03-01T15:09:43;9.00;99.90
59128;DHT22;44912;52.754;5.994;2023-03-01T15:14:51;9.00;99.90
59128;DHT22;44912;52.754;5.994;2023-03-01T15:17:33;9.00;99.90
59128;DHT22;44912;52.754;5.994;2023-03-01T15:20:04;9.10;99.90
59128;DHT22;44912;52.754;5.994;2023-03-01T15:22:31;9.10;99.90
59128;DHT22;44912;52.754;5.994;2023-03-01T15:24:56;9.00;99.90
59128;DHT22;44912;52.754;5.994;2023-03-01T15:27:24;9.00;99.90
59128;DHT22;44912;52.754;5.994;2023-03-01T15:29:56;9.00;99.90
59128;DHT22;44912;52.754;5.994;2023-03-01T15:32:32;9.00;99.90
59128;DHT22;44912;52.754;5.994;2023-03-01T15:34:59;8.90;99.90
59128;DHT22;44912;52.754;5.994;2023-03-01T15:37:49;8.90;99.90
59128;DHT22;44912;52.754;5.994;2023-03-01T15:42:49;8.80;99.90
59128;DHT22;44912;52.754;5.994;2023-03-01T15:47:51;8.80;99.90
59128;DHT22;44912;52.754;5.994;2023-03-01T15:50:23;8.80;99.90
59128;DHT22;44912;52.754;5.994;2023-03-01T15:52:50;8.70;99.90
59128;DHT22;44912;52.754;5.994;2023-03-01T15:55:21;8.70;99.90
59128;DHT22;44912;52.754;5.994;2023-03-01T15:57:48;8.70;99.90
59128;DHT22;44912;52.754;5.994;2023-03-01T16:00:15;8.70;99.90
59128;DHT22;44912;52.754;5.994;2023-03-01T16:02:42;8.80;99.90
59128;DHT22;44912;52.754;5.994;2023-03-01T16:05:35;9.00;99.90
59128;DHT22;44912;52.754;5.994;2023-03-01T16:08:01;9.10;99.90
59128;DHT22;44912;52.754;5.994;2023-03-01T16:10:28;9.30;99.90
59128;DHT22;44912;52.754;5.994;2023-03-01T16:12:53;9.60;99.90
59128;DHT22;44912;52.754;5.994;2023-03-01T16:15:27;9.90;99.90
59128;DHT22;44912;52.754;5.994;2023-03-01T16:17:53;10.20;99.90
59128;DHT22;44912;52.754;5.994;2023-03-01T16:20:18;10.20;99.90
59128;DHT22;44912;52.754;5.994;2023-03-01T16:22:45;10.30;99.90
59128;DHT22;44912;52.754;5.994;2023-03-01T16:25:15;10.20;99.90
59128;DHT22;44912;52.754;5.994;2023-03-01T16:27:43;10.20;99.90
59128;DHT22;44912;52.754;5.994;2023-03-01T16:30:10;10.30;99.90
59128;DHT22;44912;52.754;5.994;2023-03-01T16:32:40;10.20;99.90
59128;DHT22;44912;52.754;5.994;2023-03-01T16:35:06;10.10;99.90
59128;DHT22;44912;52.754;5.994;2023-03-01T16:37:33;10.00;99.90
59128;DHT22;44912;52.754;5.994;2023-03-01T16:39:59;9.80;99.90
59128;DHT22;44912;52.754;5.994;2023-03-01T16:42:25;9.60;99.90
59128;DHT22;44912;52.754;5.994;2023-03-01T16:44:55;9.60;99.90
59128;DHT22;44912;52.754;5.994;2023-03-01T16:47:21;9.60;99.90
59128;DHT22;44912;52.754;5.994;2023-03-01T16:49:46;9.60;99.90
59128;DHT22;44912;52.754;5.994;2023-03-01T16:52:12;9.50;99.90
59128;DHT22;44912;52.754;5.994;2023-03-01T16:54:38;9.50;99.90
59128;DHT22;44912;52.754;5.994;2023-03-01T16:57:04;9.30;99.90
59128;DHT22;44912;52.754;5.994;2023-03-01T16:59:30;9.20;99.90
59128;DHT22;44912;52.754;5.994;2023-03-01T17:01:55;9.00;99.90
59128;DHT22;44912;52.754;5.994;2023-03-01T17:04:21;8.90;99.90
59128;DHT22;44912;52.754;5.994;2023-03-01T17:06:46;8.70;99.90
59128;DHT22;44912;52.754;5.994;2023-03-01T17:09:14;8.30;99.90
59128;DHT22;44912;52.754;5.994;2023-03-01T17:11:39;7.90;99.90
59128;DHT22;44912;52.754;5.994;2023-03-01T17:14:05;7.60;99.90
59128;DHT22;44912;52.754;5.994;2023-03-01T17:16:30;7.30;99.90
59128;DHT22;44912;52.754;5.994;2023-03-01T17:18:56;7.00;99.90
59128;DHT22;44912;52.754;5.994;2023-03-01T17:21:22;6.70;99.90
59128;DHT22;44912;52.754;5.994;2023-03-01T17:23:47;6.50;99.90
59128;DHT22;44912;52.754;5.994;2023-03-01T17:26:14;6.40;99.90
59128;DHT22;44912;52.754;5.994;2023-03-01T17:28:40;6.20;99.90
59128;DHT22;44912;52.754;5.994;2023-03-01T17:31:08;6.10;99.90
59128;DHT22;44912;52.754;5.994;2023-03-01T17:33:34;6.00;99.90
59128;DHT22;44912;52.754;5.994;2023-03-01T17:36:00;5.90;99.90
59128;DHT22;44912;52.754;5.994;2023-03-01T17:38:26;5.80;99.90
59128;DHT22;44912;52.754;5.994;2023-03-01T17:40:52;5.80;99.90
59128;DHT22;44912;52.754;5.994;2023-03-01T17:43:17;5.70;99.90